Time;durP1;ratioP1;P1;durP2;ratioP2;P2;SDS_P1;SDS_P2;PMS_P1;PMS_P2;Temp;Humidity;BMP_temperature;BMP_pressure;BME280_temperature;BME280_humidity;BME280_pressure;Samples;Min_cycle;Max_cycle;Signal;HPM_P1;HPM_P2
2021/10/16 00:01:18;;;;;;;8.23;3.83;;;9.30;99.90;;;;;;4440003;32;20119;-64
2021/10/16 00:03:45;;;;;;;10.10;4.30;;;9.30;99.90;;;;;;4442184;32;20202;-64
2021/10/16 00:06:13;;;;;;;11.90;4.10;;;9.30;99.90;;;;;;4440954;32;20172;-64
2021/10/16 00:08:39;;;;;;;9.53;4.33;;;9.20;99.90;;;;;;4441558;32;20389;-64
2021/10/16 00:11:06;;;;;;;8.50;4.07;;;9.20;99.90;;;;;;4441395;32;20162;-63
2021/10/16 00:13:33;;;;;;;9.40;4.20;;;9.20;99.90;;;;;;4440065;32;20142;-65
2021/10/16 00:16:00;;;;;;;10.03;3.87;;;9.30;99.90;;;;;;4439734;32;20446;-64
2021/10/16 00:18:27;;;;;;;8.10;4.13;;;9.30;99.90;;;;;;4440392;32;20122;-65
2021/10/16 00:20:55;;;;;;;12.33;4.57;;;9.40;99.90;;;;;;4440190;32;20131;-63
2021/10/16 00:23:22;;;;;;;11.77;3.97;;;9.40;99.90;;;;;;4441716;32;20179;-64
2021/10/16 00:25:49;;;;;;;11.13;3.90;;;9.40;99.90;;;;;;4441296;32;20352;-63
2021/10/16 00:28:16;;;;;;;7.40;4.10;;;9.40;99.90;;;;;;4439893;32;20272;-64
2021/10/16 00:30:43;;;;;;;7.10;3.87;;;9.40;99.90;;;;;;4439157;32;20223;-64
2021/10/16 00:33:10;;;;;;;8.77;3.90;;;9.40;99.90;;;;;;4439466;32;20126;-64
2021/10/16 00:35:36;;;;;;;7.87;3.90;;;9.40;99.90;;;;;;4441117;32;20149;-64
2021/10/16 00:38:03;;;;;;;8.77;3.87;;;9.30;99.90;;;;;;4441208;32;20130;-63
2021/10/16 00:40:30;;;;;;;12.47;3.70;;;9.30;99.90;;;;;;4441070;32;20123;-64
2021/10/16 00:42:57;;;;;;;9.47;3.80;;;9.40;99.90;;;;;;4439405;32;20130;-65
2021/10/16 00:45:25;;;;;;;10.07;4.20;;;9.40;99.90;;;;;;4440888;32;20422;-64
2021/10/16 00:47:53;;;;;;;11.30;4.20;;;9.40;99.90;;;;;;4441321;32;20127;-63
2021/10/16 00:50:21;;;;;;;11.27;4.43;;;9.40;99.90;;;;;;4441218;32;20134;-64
2021/10/16 00:52:49;;;;;;;10.83;4.17;;;9.40;99.90;;;;;;4438595;32;20202;-64
2021/10/16 00:55:18;;;;;;;9.07;4.07;;;9.40;99.90;;;;;;4439654;32;20171;-64
2021/10/16 00:57:45;;;;;;;8.57;4.47;;;9.40;99.90;;;;;;4440757;32;20442;-64
2021/10/16 01:00:14;;;;;;;10.10;4.40;;;9.40;99.90;;;;;;4440994;32;20139;-64
2021/10/16 01:02:42;;;;;;;10.03;4.40;;;9.40;99.90;;;;;;4439452;32;20179;-65
2021/10/16 01:05:10;;;;;;;9.07;4.87;;;9.30;99.90;;;;;;4439219;32;20143;-64
2021/10/16 01:07:38;;;;;;;11.00;4.90;;;9.30;99.90;;;;;;4449537;32;20142;-64
2021/10/16 01:10:09;;;;;;;10.30;4.70;;;9.30;99.90;;;;;;4440486;32;20184;-64
2021/10/16 01:12:37;;;;;;;10.43;4.80;;;9.30;99.90;;;;;;4441280;32;20196;-64
2021/10/16 01:15:08;;;;;;;13.93;5.00;;;9.30;99.90;;;;;;4439080;32;20187;-64
2021/10/16 01:17:37;;;;;;;14.00;5.23;;;9.30;99.90;;;;;;4439399;32;20127;-64
2021/10/16 01:20:15;;;;;;;9.53;5.03;;;9.40;99.90;;;;;;4439305;32;20146;-64
2021/10/16 01:22:43;;;;;;;11.90;5.50;;;9.30;99.90;;;;;;4439503;32;20183;-64
2021/10/16 01:25:14;;;;;;;11.80;5.90;;;9.40;99.90;;;;;;4439721;32;20135;-64
2021/10/16 01:27:41;;;;;;;12.60;5.70;;;9.30;99.90;;;;;;4440635;32;20162;-65
2021/10/16 01:30:11;;;;;;;13.77;5.73;;;9.30;99.90;;;;;;4439042;32;20126;-64
2021/10/16 01:32:38;;;;;;;13.03;5.67;;;9.30;99.90;;;;;;4439200;32;20157;-64
2021/10/16 01:35:07;;;;;;;12.23;6.00;;;9.40;99.90;;;;;;4439255;32;20441;-64
2021/10/16 01:37:38;;;;;;;15.40;6.43;;;9.30;99.90;;;;;;4439182;32;20130;-64
2021/10/16 01:40:05;;;;;;;13.17;6.13;;;9.30;99.90;;;;;;4439094;32;20237;-63
2021/10/16 01:42:32;;;;;;;13.10;6.23;;;9.30;99.90;;;;;;4440638;32;20138;-64
2021/10/16 01:44:58;;;;;;;14.20;6.57;;;9.30;99.90;;;;;;4439040;32;20130;-64
2021/10/16 01:47:25;;;;;;;12.53;6.20;;;9.30;99.90;;;;;;4439025;32;20180;-63
2021/10/16 01:49:55;;;;;;;15.17;6.30;;;9.30;99.90;;;;;;4439200;32;20195;-63
2021/10/16 01:52:22;;;;;;;13.90;6.20;;;9.30;99.90;;;;;;4440911;32;20187;-64
2021/10/16 01:54:49;;;;;;;12.40;6.60;;;9.30;99.90;;;;;;4440953;32;20151;-64
2021/10/16 01:57:16;;;;;;;11.33;6.33;;;9.40;99.90;;;;;;4438596;32;20178;-63
2021/10/16 01:59:42;;;;;;;13.13;6.63;;;9.40;99.90;;;;;;4439989;32;20176;-64
2021/10/16 02:02:10;;;;;;;13.47;6.50;;;9.40;99.90;;;;;;4439767;32;20270;-64
2021/10/16 02:04:37;;;;;;;13.67;5.73;;;9.40;99.90;;;;;;4439027;32;20456;-64
2021/10/16 02:07:04;;;;;;;16.10;6.10;;;9.30;99.90;;;;;;4440702;32;20123;-64
2021/10/16 02:09:30;;;;;;;14.00;5.87;;;9.30;99.90;;;;;;4438827;32;20131;-64
2021/10/16 02:11:57;;;;;;;14.13;5.90;;;9.30;99.90;;;;;;4438699;32;20180;-64
2021/10/16 02:14:24;;;;;;;13.23;5.70;;;9.30;99.90;;;;;;4440380;32;20349;-64
2021/10/16 02:16:51;;;;;;;13.47;5.83;;;9.30;99.90;;;;;;4438988;32;20469;-64
2021/10/16 02:19:19;;;;;;;13.00;5.57;;;9.20;99.90;;;;;;4440771;32;20127;-65
2021/10/16 02:21:46;;;;;;;14.00;6.10;;;9.20;99.90;;;;;;4440701;32;20299;-65
2021/10/16 02:24:13;;;;;;;10.00;5.00;;;9.30;99.90;;;;;;4440285;32;20195;-64
2021/10/16 02:26:40;;;;;;;14.87;5.67;;;9.20;99.90;;;;;;4438352;32;20552;-64
2021/10/16 02:29:07;;;;;;;13.80;5.27;;;9.30;99.90;;;;;;4438488;32;20126;-64
2021/10/16 02:31:34;;;;;;;13.20;5.50;;;9.30;99.90;;;;;;4442020;32;20126;-65
2021/10/16 02:34:00;;;;;;;10.60;5.20;;;9.30;99.90;;;;;;4442811;32;20127;-64
2021/10/16 02:36:28;;;;;;;9.77;5.10;;;9.30;99.90;;;;;;4443285;32;20180;-65
2021/10/16 02:38:54;;;;;;;17.13;5.67;;;9.30;99.90;;;;;;4443191;32;20143;-64
2021/10/16 02:41:21;;;;;;;10.97;5.30;;;9.30;99.90;;;;;;4442996;32;20506;-63
2021/10/16 02:43:48;;;;;;;13.57;5.77;;;9.30;99.90;;;;;;4441357;32;20196;-64
2021/10/16 02:46:15;;;;;;;21.13;5.43;;;9.20;99.90;;;;;;4441632;32;20127;-64
2021/10/16 02:48:42;;;;;;;10.37;5.00;;;9.30;99.90;;;;;;4441541;32;20123;-65
2021/10/16 02:51:08;;;;;;;10.50;5.07;;;9.30;99.90;;;;;;4441510;32;20126;-65
2021/10/16 02:53:35;;;;;;;10.63;5.73;;;9.30;99.90;;;;;;4442831;32;20123;-63
2021/10/16 02:56:03;;;;;;;12.27;5.30;;;9.30;99.90;;;;;;4441188;32;20227;-64
2021/10/16 02:58:30;;;;;;;11.43;5.67;;;9.30;99.90;;;;;;4442940;32;20127;-64
2021/10/16 03:00:57;;;;;;;12.23;5.13;;;9.20;99.90;;;;;;4441246;32;20391;-64
2021/10/16 03:03:23;;;;;;;11.50;5.10;;;9.20;99.90;;;;;;4443026;32;20157;-63
2021/10/16 03:05:50;;;;;;;13.60;5.63;;;9.20;99.90;;;;;;4442872;32;20191;-65
2021/10/16 03:08:17;;;;;;;14.57;6.13;;;9.20;99.90;;;;;;4441185;32;20127;-64
2021/10/16 03:10:44;;;;;;;14.47;6.00;;;9.20;99.90;;;;;;4440987;32;20179;-64
2021/10/16 03:13:10;;;;;;;14.73;6.20;;;9.20;99.90;;;;;;4442410;32;20180;-64
2021/10/16 03:15:37;;;;;;;16.80;6.90;;;9.20;99.90;;;;;;4442854;32;20247;-64
2021/10/16 03:18:04;;;;;;;14.47;6.50;;;9.10;99.90;;;;;;4441026;32;20493;-64
2021/10/16 03:20:31;;;;;;;16.50;6.27;;;9.20;99.90;;;;;;4440805;32;20179;-64
2021/10/16 03:22:57;;;;;;;16.13;6.33;;;9.20;99.90;;;;;;4441792;32;20176;-64
2021/10/16 03:25:24;;;;;;;12.27;6.30;;;9.20;99.90;;;;;;4441759;32;20119;-64
2021/10/16 03:27:51;;;;;;;12.80;6.60;;;9.20;99.90;;;;;;4442005;32;20243;-64
2021/10/16 03:30:18;;;;;;;12.43;6.90;;;9.20;99.90;;;;;;4442564;32;20186;-65
2021/10/16 03:32:45;;;;;;;11.67;6.43;;;9.20;99.90;;;;;;4440496;32;20510;-64
2021/10/16 03:35:11;;;;;;;13.20;6.47;;;9.20;99.90;;;;;;4440789;32;20123;-65
2021/10/16 03:37:38;;;;;;;12.23;6.37;;;9.20;99.90;;;;;;4442173;32;20596;-65
2021/10/16 03:40:06;;;;;;;15.20;6.37;;;9.10;99.90;;;;;;4442427;32;20122;-64
2021/10/16 03:42:33;;;;;;;13.20;6.50;;;9.10;99.90;;;;;;4441635;32;20135;-64
2021/10/16 03:45:01;;;;;;;12.97;5.77;;;9.10;99.90;;;;;;4442048;32;20433;-65
2021/10/16 03:47:27;;;;;;;13.70;5.73;;;9.10;99.90;;;;;;4442408;32;20418;-65
2021/10/16 03:49:54;;;;;;;11.83;5.50;;;9.10;99.90;;;;;;4442053;32;20134;-65
2021/10/16 03:52:21;;;;;;;14.40;6.20;;;9.10;99.90;;;;;;4440622;32;20158;-65
2021/10/16 03:54:48;;;;;;;16.03;6.30;;;9.10;99.90;;;;;;4441857;32;20123;-64
2021/10/16 03:57:14;;;;;;;15.53;5.77;;;9.10;99.90;;;;;;4440094;32;20166;-64
2021/10/16 03:59:43;;;;;;;10.80;5.70;;;9.10;99.90;;;;;;4440405;32;20452;-64
2021/10/16 04:02:10;;;;;;;15.00;5.43;;;9.10;99.90;;;;;;4440396;32;20123;-64
2021/10/16 04:04:37;;;;;;;14.87;5.30;;;9.20;99.90;;;;;;4440322;32;20552;-64
2021/10/16 04:07:04;;;;;;;14.30;5.63;;;9.20;99.90;;;;;;4440225;32;20147;-64
2021/10/16 04:09:31;;;;;;;10.50;5.50;;;9.20;99.90;;;;;;4441853;32;20179;-64
2021/10/16 04:11:58;;;;;;;11.07;5.10;;;9.10;99.90;;;;;;4439917;32;20440;-64
2021/10/16 04:14:25;;;;;;;13.70;5.40;;;9.10;99.90;;;;;;4441945;32;20192;-64
2021/10/16 04:16:51;;;;;;;12.10;5.03;;;9.20;99.90;;;;;;4440230;32;20139;-64
2021/10/16 04:19:18;;;;;;;10.17;4.63;;;9.20;99.90;;;;;;4440150;32;20130;-64
2021/10/16 04:21:45;;;;;;;12.33;4.97;;;9.10;99.90;;;;;;4440803;32;20147;-64
2021/10/16 04:24:12;;;;;;;12.17;5.30;;;9.10;99.90;;;;;;4440895;32;20126;-65
2021/10/16 04:26:39;;;;;;;12.30;5.03;;;9.10;99.90;;;;;;4441093;32;20504;-64
2021/10/16 04:29:06;;;;;;;12.20;4.90;;;9.10;99.90;;;;;;4440088;32;20215;-64
2021/10/16 04:31:32;;;;;;;13.20;5.30;;;9.10;99.90;;;;;;4439935;32;20176;-64
2021/10/16 04:34:00;;;;;;;11.27;5.07;;;9.10;99.90;;;;;;4440049;32;20123;-64
2021/10/16 04:36:26;;;;;;;11.57;5.20;;;9.10;99.90;;;;;;4441530;32;20124;-65
2021/10/16 04:38:54;;;;;;;12.73;4.60;;;9.10;99.90;;;;;;4440014;32;20206;-64
2021/10/16 04:41:22;;;;;;;11.47;4.20;;;9.10;99.90;;;;;;4441408;32;20135;-64
2021/10/16 04:43:49;;;;;;;13.67;4.57;;;9.10;99.90;;;;;;4439646;32;20135;-63
2021/10/16 04:46:16;;;;;;;10.43;4.67;;;9.10;99.90;;;;;;4441422;32;20123;-63
2021/10/16 04:48:44;;;;;;;10.73;4.73;;;9.10;99.90;;;;;;4440010;32;20149;-64
2021/10/16 04:51:11;;;;;;;11.93;4.00;;;9.10;99.90;;;;;;4439485;32;20596;-64
2021/10/16 04:53:39;;;;;;;9.67;4.53;;;9.10;99.90;;;;;;4438987;32;20131;-65
2021/10/16 04:56:07;;;;;;;11.97;4.30;;;9.10;99.90;;;;;;4439678;32;20224;-65
2021/10/16 04:58:33;;;;;;;9.03;4.40;;;9.10;99.90;;;;;;4440323;32;20189;-64
2021/10/16 05:01:00;;;;;;;9.57;4.47;;;9.10;99.90;;;;;;4441160;32;20127;-64
2021/10/16 05:03:28;;;;;;;11.47;5.13;;;9.10;99.90;;;;;;4441246;32;20210;-65
2021/10/16 05:05:54;;;;;;;16.43;4.53;;;9.10;99.90;;;;;;4439614;32;20233;-64
2021/10/16 05:08:21;;;;;;;10.30;4.70;;;9.10;99.90;;;;;;4439363;32;20127;-64
2021/10/16 05:10:49;;;;;;;9.20;4.03;;;9.10;99.90;;;;;;4441106;32;20130;-65
2021/10/16 05:13:16;;;;;;;11.37;4.70;;;9.10;99.90;;;;;;4440110;32;20158;-64
2021/10/16 05:15:43;;;;;;;10.90;4.43;;;9.10;99.90;;;;;;4441149;32;20158;-64
2021/10/16 05:18:10;;;;;;;14.40;4.57;;;9.10;99.90;;;;;;4439103;32;20455;-64
2021/10/16 05:20:37;;;;;;;13.27;4.37;;;9.10;99.90;;;;;;4439125;32;20172;-64
2021/10/16 05:23:04;;;;;;;9.17;4.13;;;9.10;99.90;;;;;;4439221;32;20391;-65
2021/10/16 05:25:31;;;;;;;11.50;4.60;;;9.10;99.90;;;;;;4440816;32;20194;-63
2021/10/16 05:27:58;;;;;;;12.53;4.50;;;9.20;99.90;;;;;;4440461;32;20242;-64
2021/10/16 05:30:24;;;;;;;10.03;4.20;;;9.20;99.90;;;;;;4440930;32;20180;-65
2021/10/16 05:32:52;;;;;;;12.20;4.50;;;9.20;99.90;;;;;;4448609;32;20146;-65
2021/10/16 05:35:19;;;;;;;11.53;4.33;;;9.20;99.90;;;;;;4439051;32;20163;-65
2021/10/16 05:37:46;;;;;;;9.07;4.10;;;9.20;99.90;;;;;;4451666;32;20531;-64
2021/10/16 05:40:12;;;;;;;10.17;4.17;;;9.20;99.90;;;;;;4455885;32;20128;-64
2021/10/16 05:42:39;;;;;;;11.80;3.97;;;9.20;99.90;;;;;;4454798;32;20131;-64
2021/10/16 05:45:07;;;;;;;10.47;4.33;;;9.20;99.90;;;;;;4454968;32;20150;-64
2021/10/16 05:47:36;;;;;;;12.23;4.30;;;9.20;99.90;;;;;;4456355;32;20431;-64
2021/10/16 05:50:05;;;;;;;8.90;4.13;;;9.20;99.90;;;;;;4456118;32;20146;-64
2021/10/16 05:52:32;;;;;;;10.43;4.10;;;9.20;99.90;;;;;;4454068;32;20123;-64
2021/10/16 05:54:59;;;;;;;8.70;3.80;;;9.20;99.90;;;;;;4456163;32;20180;-65
2021/10/16 05:57:26;;;;;;;12.53;4.30;;;9.20;99.90;;;;;;4455073;32;20145;-65
2021/10/16 05:59:53;;;;;;;10.97;4.27;;;9.20;99.90;;;;;;4455692;32;20176;-65
2021/10/16 06:02:20;;;;;;;9.27;3.83;;;9.20;99.90;;;;;;4455100;32;20168;-65
2021/10/16 06:04:46;;;;;;;12.87;3.80;;;9.20;99.90;;;;;;4457218;32;20126;-65
2021/10/16 06:07:13;;;;;;;10.30;3.97;;;9.20;99.90;;;;;;4453987;32;20417;-65
2021/10/16 06:09:40;;;;;;;9.90;3.70;;;9.20;99.90;;;;;;4444525;32;20134;-64
2021/10/16 06:12:07;;;;;;;10.80;3.53;;;9.20;99.90;;;;;;4441972;32;20428;-64
2021/10/16 06:14:33;;;;;;;12.40;4.10;;;9.20;99.90;;;;;;4442022;32;20184;-64
2021/10/16 06:17:01;;;;;;;10.10;4.37;;;9.20;99.90;;;;;;4443648;32;20372;-65
2021/10/16 06:19:27;;;;;;;11.27;4.30;;;9.20;99.90;;;;;;4442199;32;20176;-64
2021/10/16 06:21:55;;;;;;;15.13;4.23;;;9.30;99.90;;;;;;4442510;32;20192;-65
2021/10/16 06:24:21;;;;;;;9.50;4.03;;;9.30;99.90;;;;;;4443163;32;20476;-65
2021/10/16 06:26:48;;;;;;;9.17;3.80;;;9.30;99.90;;;;;;4443018;32;20197;-65
2021/10/16 06:29:15;;;;;;;10.13;4.37;;;9.30;99.90;;;;;;4443104;32;20422;-65
2021/10/16 06:31:42;;;;;;;14.60;4.50;;;9.40;99.90;;;;;;4443429;32;20139;-65
2021/10/16 06:34:09;;;;;;;14.70;4.20;;;9.30;99.90;;;;;;4441554;32;20180;-65
2021/10/16 06:36:36;;;;;;;8.87;4.47;;;9.30;99.90;;;;;;4443367;32;20135;-65
2021/10/16 06:39:03;;;;;;;11.63;4.20;;;9.30;99.90;;;;;;4442655;32;20131;-65
2021/10/16 06:41:30;;;;;;;9.27;4.20;;;9.30;99.90;;;;;;4442313;32;20191;-65
2021/10/16 06:43:57;;;;;;;13.63;4.07;;;9.40;99.90;;;;;;4441738;32;20195;-66
2021/10/16 06:46:24;;;;;;;10.77;3.97;;;9.40;99.90;;;;;;4441368;32;20182;-67
2021/10/16 06:48:51;;;;;;;10.07;4.10;;;9.40;99.90;;;;;;4441845;32;20162;-66
2021/10/16 06:51:17;;;;;;;10.17;4.10;;;9.50;99.90;;;;;;4443025;32;20124;-65
2021/10/16 06:53:44;;;;;;;11.83;4.13;;;9.40;99.90;;;;;;4442236;32;20139;-65
2021/10/16 06:56:11;;;;;;;11.37;4.50;;;9.40;99.90;;;;;;4442794;32;20154;-65
2021/10/16 06:58:38;;;;;;;11.40;4.33;;;9.40;99.90;;;;;;4443003;32;20139;-65
2021/10/16 07:01:04;;;;;;;10.07;4.60;;;9.50;99.90;;;;;;4442983;32;20146;-64
2021/10/16 07:03:31;;;;;;;15.90;4.97;;;9.40;99.90;;;;;;4447574;32;20155;-65
2021/10/16 07:05:58;;;;;;;10.93;4.60;;;9.40;99.90;;;;;;4442659;32;20122;-65
2021/10/16 07:08:29;;;;;;;12.17;4.90;;;9.50;99.90;;;;;;4442820;32;20187;-65
2021/10/16 07:10:56;;;;;;;12.30;5.30;;;9.50;99.90;;;;;;4441055;32;20276;-65
2021/10/16 07:13:24;;;;;;;10.43;4.60;;;9.50;99.90;;;;;;4442455;32;20126;-65
2021/10/16 07:15:51;;;;;;;15.87;5.10;;;9.50;99.90;;;;;;4441688;32;20191;-64
2021/10/16 07:18:18;;;;;;;14.10;5.53;;;9.50;99.90;;;;;;4442822;32;20166;-64
2021/10/16 07:20:45;;;;;;;13.33;5.30;;;9.40;99.90;;;;;;4442295;32;20133;-64
2021/10/16 07:23:32;;;;;;;11.90;5.00;;;9.30;99.90;;;;;;4440409;32;20174;-64
2021/10/16 07:25:59;;;;;;;15.57;5.23;;;9.40;99.90;;;;;;4441816;32;20211;-64
2021/10/16 07:28:26;;;;;;;15.13;4.90;;;9.40;99.90;;;;;;4440618;32;20131;-64
2021/10/16 07:30:53;;;;;;;14.13;5.93;;;9.50;99.90;;;;;;4441913;32;20134;-64
2021/10/16 07:33:20;;;;;;;11.87;5.67;;;9.50;99.90;;;;;;4441755;32;20215;-64
2021/10/16 07:35:47;;;;;;;14.43;5.00;;;9.50;99.90;;;;;;4441316;32;20118;-64
2021/10/16 07:38:14;;;;;;;10.43;5.40;;;9.40;99.90;;;;;;4445774;32;20142;-63
2021/10/16 07:40:41;;;;;;;15.60;5.43;;;9.50;99.90;;;;;;4442715;32;20488;-64
2021/10/16 07:43:09;;;;;;;11.03;5.00;;;9.50;99.90;;;;;;4439465;32;20501;-65
2021/10/16 07:45:35;;;;;;;16.50;5.30;;;9.60;99.90;;;;;;4441274;32;20122;-63
2021/10/16 07:48:03;;;;;;;11.80;4.97;;;9.60;99.90;;;;;;4441023;32;20176;-63
2021/10/16 07:50:30;;;;;;;12.23;5.67;;;9.70;99.90;;;;;;4440866;32;20278;-64
2021/10/16 07:52:56;;;;;;;10.10;4.93;;;9.70;99.90;;;;;;4440148;32;20123;-63
2021/10/16 07:55:23;;;;;;;26.13;10.33;;;9.80;99.90;;;;;;4441718;32;20126;-64
2021/10/16 07:57:50;;;;;;;13.53;5.17;;;9.90;99.90;;;;;;4440019;32;20203;-66
2021/10/16 08:00:17;;;;;;;15.53;5.23;;;10.00;99.90;;;;;;4439352;32;20155;-64
2021/10/16 08:02:44;;;;;;;13.73;5.13;;;10.00;99.90;;;;;;4439640;32;20186;-64
2021/10/16 08:05:14;;;;;;;14.93;5.30;;;10.00;99.90;;;;;;4439748;32;20498;-63
2021/10/16 08:07:42;;;;;;;14.07;4.60;;;10.10;99.90;;;;;;4439736;32;20203;-64
2021/10/16 08:10:10;;;;;;;11.80;4.90;;;10.10;99.90;;;;;;4441071;32;20434;-63
2021/10/16 08:12:37;;;;;;;13.27;5.17;;;10.20;99.90;;;;;;4440931;32;20155;-63
2021/10/16 08:15:07;;;;;;;13.83;4.90;;;10.30;99.90;;;;;;4438733;32;20513;-64
2021/10/16 08:17:34;;;;;;;14.13;4.80;;;10.80;99.90;;;;;;4439727;32;20176;-64
2021/10/16 08:20:02;;;;;;;10.73;4.27;;;11.00;99.90;;;;;;4444958;32;20142;-64
2021/10/16 08:22:29;;;;;;;15.50;4.43;;;11.10;99.90;;;;;;4442068;32;20174;-64
2021/10/16 08:24:56;;;;;;;17.10;5.10;;;11.30;99.90;;;;;;4439160;32;20183;-64
2021/10/16 08:27:23;;;;;;;13.57;4.40;;;11.30;99.90;;;;;;4440301;32;20212;-64
2021/10/16 08:29:50;;;;;;;13.43;4.40;;;11.10;99.90;;;;;;4440691;32;20353;-65
2021/10/16 08:32:17;;;;;;;10.27;4.27;;;11.10;99.90;;;;;;4440869;32;20265;-64
2021/10/16 08:34:43;;;;;;;10.13;4.10;;;11.00;99.90;;;;;;4441182;32;20178;-65
2021/10/16 08:37:10;;;;;;;11.43;4.70;;;10.90;99.90;;;;;;4439631;32;20448;-63
2021/10/16 08:39:37;;;;;;;11.93;4.93;;;10.70;99.90;;;;;;4441236;32;20188;-64
2021/10/16 08:42:04;;;;;;;10.27;5.10;;;10.60;99.90;;;;;;4439336;32;20135;-63
2021/10/16 08:44:31;;;;;;;12.60;4.43;;;10.70;99.90;;;;;;4440296;32;20303;-65
2021/10/16 08:46:58;;;;;;;13.10;4.90;;;10.60;99.90;;;;;;4440894;32;20427;-63
2021/10/16 08:49:30;;;;;;;12.77;4.57;;;10.60;99.90;;;;;;4440368;32;20139;-64
2021/10/16 08:51:57;;;;;;;12.30;4.73;;;10.40;99.90;;;;;;4440118;32;20176;-65
2021/10/16 08:54:24;;;;;;;13.60;5.43;;;10.40;99.90;;;;;;4439657;32;20131;-64
2021/10/16 08:56:51;;;;;;;13.97;5.40;;;10.40;99.90;;;;;;4439096;32;20207;-65
2021/10/16 08:59:18;;;;;;;11.53;5.40;;;10.40;99.90;;;;;;4441148;32;20134;-65
2021/10/16 09:01:59;;;;;;;10.67;4.47;;;10.50;99.90;;;;;;4439535;32;20180;-63
2021/10/16 09:04:27;;;;;;;11.57;4.70;;;10.60;99.90;;;;;;4439601;32;20126;-65
2021/10/16 09:06:54;;;;;;;12.17;4.70;;;10.70;99.90;;;;;;4439506;32;20176;-63
2021/10/16 09:09:26;;;;;;;17.07;6.03;;;10.80;99.90;;;;;;4438509;32;20220;-64
2021/10/16 09:11:56;;;;;;;15.33;4.83;;;10.80;99.90;;;;;;4440715;32;20180;-64
2021/10/16 09:14:23;;;;;;;14.63;4.53;;;10.80;99.90;;;;;;4440902;32;20127;-65
2021/10/16 09:17:01;;;;;;;12.23;4.77;;;10.80;99.90;;;;;;4439468;32;20135;-64
2021/10/16 09:19:30;;;;;;;12.10;4.43;;;10.80;99.90;;;;;;4441064;32;20127;-64
2021/10/16 09:22:01;;;;;;;11.00;4.27;;;11.00;99.90;;;;;;4439239;32;20156;-65
2021/10/16 09:24:34;;;;;;;13.67;4.27;;;11.10;99.90;;;;;;4440637;32;20126;-64
2021/10/16 09:27:08;;;;;;;12.70;4.33;;;11.20;99.90;;;;;;4440704;32;20159;-64
2021/10/16 09:29:37;;;;;;;10.80;4.03;;;11.00;99.90;;;;;;4440760;32;20139;-64
2021/10/16 09:32:09;;;;;;;12.70;4.10;;;11.30;99.90;;;;;;4441150;32;20179;-65
2021/10/16 09:34:37;;;;;;;15.70;4.30;;;11.80;99.90;;;;;;4441030;32;20420;-64
2021/10/16 09:37:08;;;;;;;11.37;3.80;;;12.40;99.90;;;;;;4438727;32;20131;-64
2021/10/16 09:39:42;;;;;;;9.67;3.43;;;13.10;99.90;;;;;;4440479;32;20179;-64
2021/10/16 09:42:10;;;;;;;13.97;4.20;;;13.80;99.90;;;;;;4440440;32;20123;-64
2021/10/16 09:44:39;;;;;;;13.37;4.00;;;14.30;99.90;;;;;;4438674;32;20132;-65
2021/10/16 09:47:15;;;;;;;10.50;4.10;;;13.80;99.90;;;;;;4440842;32;20131;-66
2021/10/16 09:49:48;;;;;;;11.57;4.27;;;13.50;99.90;;;;;;4440599;32;20200;-65
2021/10/16 09:52:17;;;;;;;13.03;4.10;;;13.40;99.90;;;;;;4439026;32;20238;-65
2021/10/16 09:54:49;;;;;;;12.40;4.43;;;13.50;99.90;;;;;;4440430;32;20118;-64
2021/10/16 09:57:21;;;;;;;10.47;4.10;;;13.40;99.90;;;;;;4439442;32;20168;-64
2021/10/16 09:59:48;;;;;;;9.83;3.93;;;13.20;99.90;;;;;;4438996;32;20147;-65
2021/10/16 10:02:15;;;;;;;13.57;4.93;;;12.80;99.90;;;;;;4438568;32;20178;-63
2021/10/16 10:04:45;;;;;;;11.43;4.40;;;12.70;99.90;;;;;;4440519;32;20139;-65
2021/10/16 10:07:14;;;;;;;13.37;4.23;;;12.60;99.90;;;;;;4446543;32;20161;-63
2021/10/16 10:09:42;;;;;;;10.10;3.73;;;12.60;99.90;;;;;;4438811;32;20123;-65
2021/10/16 10:12:11;;;;;;;13.13;4.17;;;12.50;99.90;;;;;;4438611;32;20127;-63
2021/10/16 10:14:42;;;;;;;12.00;3.97;;;12.30;99.90;;;;;;4438842;32;20131;-63
2021/10/16 10:17:10;;;;;;;12.23;5.00;;;12.30;99.90;;;;;;4439795;32;20184;-64
2021/10/16 10:19:46;;;;;;;11.33;4.17;;;12.20;99.90;;;;;;4446219;32;20355;-63
2021/10/16 10:22:16;;;;;;;12.53;4.20;;;11.70;99.90;;;;;;4454028;32;20126;-63
2021/10/16 10:24:45;;;;;;;12.40;4.17;;;11.50;99.90;;;;;;4454006;32;20428;-64
2021/10/16 10:27:15;;;;;;;13.43;4.50;;;11.40;99.90;;;;;;4453552;32;20173;-63
2021/10/16 10:29:45;;;;;;;15.43;4.03;;;11.40;99.90;;;;;;4454701;32;20123;-63
2021/10/16 10:32:25;;;;;;;11.27;4.07;;;11.60;99.90;;;;;;4453850;32;20153;-65
2021/10/16 10:35:03;;;;;;;12.17;3.87;;;11.70;99.90;;;;;;4453749;32;20470;-64
2021/10/16 10:37:37;;;;;;;9.07;3.73;;;11.90;99.90;;;;;;4455765;32;20158;-64
2021/10/16 10:40:23;;;;;;;12.83;4.07;;;11.70;99.90;;;;;;4454148;32;20175;-64
2021/10/16 10:42:54;;;;;;;13.63;4.67;;;11.70;99.90;;;;;;4453842;32;20486;-64
2021/10/16 10:45:36;;;;;;;11.57;4.03;;;11.80;99.90;;;;;;4453716;32;20138;-62
2021/10/16 10:48:09;;;;;;;11.93;4.00;;;11.80;99.90;;;;;;4453840;32;20142;-64
2021/10/16 10:50:52;;;;;;;13.63;4.47;;;11.60;99.90;;;;;;4454601;32;20123;-64
2021/10/16 10:53:31;;;;;;;13.73;3.90;;;11.60;99.90;;;;;;4443460;32;20538;-62
2021/10/16 10:56:04;;;;;;;9.27;3.80;;;11.50;99.90;;;;;;4440499;32;20484;-62
2021/10/16 10:58:49;;;;;;;14.73;4.30;;;11.50;99.90;;;;;;4442660;32;20147;-63
2021/10/16 11:01:43;;;;;;;12.23;4.23;;;11.60;99.90;;;;;;4442614;32;20290;-63
2021/10/16 11:04:30;;;;;;;13.30;4.10;;;11.40;99.90;;;;;;4440983;32;20158;-63
2021/10/16 11:07:00;;;;;;;12.80;4.50;;;11.40;99.90;;;;;;4449395;32;20138;-64
2021/10/16 11:09:27;;;;;;;11.90;3.80;;;11.50;99.90;;;;;;4457987;32;20176;-62
2021/10/16 11:11:53;;;;;;;12.27;4.40;;;11.60;99.90;;;;;;4456026;32;20240;-63
2021/10/16 11:14:20;;;;;;;9.90;4.03;;;11.60;99.90;;;;;;4456198;32;20499;-63
2021/10/16 11:16:58;;;;;;;9.63;3.90;;;11.50;99.90;;;;;;4458242;32;20130;-63
2021/10/16 11:19:25;;;;;;;11.10;3.73;;;11.40;99.90;;;;;;4457262;32;20130;-63
2021/10/16 11:21:54;;;;;;;13.73;4.40;;;11.20;99.90;;;;;;4441686;32;20154;-62
2021/10/16 11:24:22;;;;;;;11.20;3.63;;;11.10;99.90;;;;;;4441809;32;20448;-62
2021/10/16 11:26:57;;;;;;;16.07;4.87;;;10.80;99.90;;;;;;4440273;32;20210;-62
2021/10/16 11:29:34;;;;;;;13.70;4.73;;;10.90;99.90;;;;;;4440286;32;20176;-62
2021/10/16 11:32:19;;;;;;;15.07;4.30;;;10.90;99.90;;;;;;4441998;32;20198;-62
2021/10/16 11:34:59;;;;;;;13.70;5.00;;;10.80;99.90;;;;;;4440137;32;20188;-63
2021/10/16 11:37:47;;;;;;;17.07;5.00;;;10.80;99.90;;;;;;4440605;32;20157;-63
2021/10/16 11:40:20;;;;;;;10.53;4.60;;;10.90;99.90;;;;;;4440442;32;20150;-63
2021/10/16 11:42:53;;;;;;;13.10;4.93;;;11.00;99.90;;;;;;4440813;32;20218;-62
2021/10/16 11:45:25;;;;;;;12.60;4.40;;;10.90;99.90;;;;;;4446798;32;20185;-63
2021/10/16 11:47:54;;;;;;;10.23;4.60;;;10.80;99.90;;;;;;4441881;32;20456;-62
2021/10/16 11:50:25;;;;;;;15.77;5.13;;;10.80;99.90;;;;;;4440247;32;20176;-63
2021/10/16 11:53:05;;;;;;;10.47;4.13;;;10.90;99.90;;;;;;4440114;32;20138;-63
2021/10/16 11:55:32;;;;;;;11.83;4.47;;;11.00;99.90;;;;;;4453163;32;20487;-63
2021/10/16 11:58:16;;;;;;;13.47;5.33;;;11.20;99.90;;;;;;4455150;32;20158;-62
2021/10/16 12:00:49;;;;;;;15.63;5.10;;;11.40;99.90;;;;;;4456738;32;20448;-64
2021/10/16 12:03:21;;;;;;;12.30;4.40;;;11.50;99.90;;;;;;4457203;32;20162;-63
2021/10/16 12:05:53;;;;;;;11.07;4.40;;;11.70;99.90;;;;;;4454952;32;20166;-64
2021/10/16 12:08:29;;;;;;;15.73;4.73;;;11.60;99.90;;;;;;4456798;32;20138;-63
2021/10/16 12:10:58;;;;;;;14.37;5.60;;;11.40;99.90;;;;;;4452608;32;20176;-63
2021/10/16 12:13:35;;;;;;;15.23;5.53;;;11.30;99.90;;;;;;4455127;32;20554;-64
2021/10/16 12:16:09;;;;;;;14.20;5.57;;;11.30;99.90;;;;;;4456666;32;20154;-63
2021/10/16 12:18:46;;;;;;;13.00;5.70;;;11.20;99.90;;;;;;4455082;32;20197;-65
2021/10/16 12:21:43;;;;;;;11.87;5.00;;;11.10;99.90;;;;;;4451299;32;20146;-63
2021/10/16 12:24:12;;;;;;;15.10;5.70;;;11.20;99.90;;;;;;4454038;32;20177;-64
2021/10/16 12:26:40;;;;;;;14.50;5.60;;;10.80;99.90;;;;;;4455442;32;20165;-64
2021/10/16 12:29:10;;;;;;;12.10;5.07;;;10.60;99.90;;;;;;4456338;32;20186;-64
2021/10/16 12:31:48;;;;;;;16.17;5.67;;;10.70;99.90;;;;;;4456409;32;20142;-63
2021/10/16 12:34:30;;;;;;;12.97;5.20;;;10.80;99.90;;;;;;4454627;32;20146;-64
2021/10/16 12:36:58;;;;;;;14.87;5.20;;;10.90;99.90;;;;;;4456720;32;20429;-65
2021/10/16 12:39:32;;;;;;;12.40;5.27;;;10.90;99.90;;;;;;4454942;32;20141;-65
2021/10/16 12:42:29;;;;;;;13.57;4.80;;;10.90;99.90;;;;;;4456526;32;20280;-64
2021/10/16 12:45:07;;;;;;;14.63;5.10;;;10.90;99.90;;;;;;4453941;32;20146;-64
2021/10/16 12:47:33;;;;;;;14.00;4.60;;;11.00;99.90;;;;;;4456137;32;20141;-64
2021/10/16 12:50:03;;;;;;;13.20;5.37;;;11.00;99.90;;;;;;4455923;32;20169;-65
2021/10/16 12:52:42;;;;;;;9.93;4.57;;;11.00;99.90;;;;;;4454744;32;20158;-64